createdAt,value
2022-08-19T00:00:10.852Z,854.03
2022-08-19T00:00:43.383Z,858.45
2022-08-19T00:01:15.744Z,936.03
2022-08-19T00:02:01.398Z,921.38
2022-08-19T00:02:33.676Z,902.92
2022-08-19T00:03:06.503Z,913.28
2022-08-19T00:03:38.808Z,1098.78
2022-08-19T00:04:13.164Z,848.25
2022-08-19T00:04:48.027Z,793.55
2022-08-19T00:05:21.330Z,781.15
2022-08-19T00:05:53.563Z,711.90
2022-08-19T00:06:26.405Z,741.30
2022-08-19T00:06:58.875Z,774.50
2022-08-19T00:07:31.133Z,794.53
2022-08-19T00:08:03.747Z,754.40
2022-08-19T00:08:35.992Z,755.97
2022-08-19T00:09:16.679Z,762.35
2022-08-19T00:09:48.920Z,727.25
2022-08-19T00:10:21.687Z,722.33
2022-08-19T00:10:54.037Z,759.38
2022-08-19T00:11:28.644Z,767.65
2022-08-19T00:12:00.904Z,783.92
2022-08-19T00:12:33.327Z,761.13
2022-08-19T00:13:11.524Z,780.85
2022-08-19T00:13:43.801Z,777.95
2022-08-19T00:14:17.558Z,739.95
2022-08-19T00:14:49.804Z,798.08
2022-08-19T00:15:22.498Z,828.65
2022-08-19T00:15:54.741Z,843.03
2022-08-19T00:16:27.370Z,1011.13
2022-08-19T00:16:59.653Z,916.78
2022-08-19T00:17:32.011Z,778.33
2022-08-19T00:18:04.321Z,978.35
2022-08-19T00:18:36.609Z,845.38
2022-08-19T00:19:09.399Z,936.40
2022-08-19T00:19:41.873Z,903.45
2022-08-19T00:20:17.810Z,909.83
2022-08-19T00:20:50.022Z,818.88
2022-08-19T00:21:22.591Z,833.50
2022-08-19T00:21:55.480Z,788.78
2022-08-19T00:22:29.500Z,796.50
2022-08-19T00:23:01.732Z,764.33
2022-08-19T00:23:35.901Z,880.72
2022-08-19T00:24:09.278Z,922.97
2022-08-19T00:24:42.268Z,1061.80
2022-08-19T00:25:30.580Z,772.13
2022-08-19T00:26:35.481Z,772.55
2022-08-19T00:27:26.111Z,802.75
2022-08-19T00:28:00.074Z,801.25
2022-08-19T00:28:34.139Z,805.20
2022-08-19T00:29:10.122Z,866.28
2022-08-19T00:29:42.314Z,766.60
2022-08-19T00:30:14.658Z,749.13
2022-08-19T00:30:47.035Z,756.33
2022-08-19T00:31:19.477Z,747.58
2022-08-19T00:31:54.648Z,719.20
2022-08-19T00:32:27.224Z,734.95
2022-08-19T00:32:59.972Z,731.00
2022-08-19T00:33:35.217Z,746.13
2022-08-19T00:34:07.439Z,739.90
2022-08-19T00:34:40.119Z,738.30
2022-08-19T00:35:12.449Z,736.70
2022-08-19T00:35:44.740Z,737.97
2022-08-19T00:36:17.065Z,735.38
2022-08-19T00:36:50.085Z,751.65
2022-08-19T00:37:24.175Z,747.47
2022-08-19T00:37:57.267Z,732.90
2022-08-19T00:38:37.834Z,737.78
2022-08-19T00:39:10.486Z,743.05
2022-08-19T00:39:42.814Z,729.60
2022-08-19T00:40:15.516Z,756.70
2022-08-19T00:40:47.822Z,756.63
2022-08-19T00:41:22.265Z,756.70
2022-08-19T00:41:54.698Z,756.60
2022-08-19T00:42:29.483Z,736.60
2022-08-19T00:43:01.709Z,721.10
2022-08-19T00:43:34.121Z,736.92
2022-08-19T00:44:06.470Z,741.08
2022-08-19T00:44:39.160Z,736.38
2022-08-19T00:45:16.070Z,728.08
2022-08-19T00:45:48.965Z,745.38
2022-08-19T00:46:21.607Z,766.72
2022-08-19T00:46:57.833Z,749.10
2022-08-19T00:47:30.679Z,749.42
2022-08-19T00:48:11.778Z,745.22
2022-08-19T00:48:47.184Z,763.88
2022-08-19T00:49:22.441Z,770.85
2022-08-19T00:49:59.331Z,764.08
2022-08-19T00:50:31.788Z,774.08
2022-08-19T00:51:05.421Z,784.63
2022-08-19T00:51:38.136Z,793.30
2022-08-19T00:52:13.939Z,782.80
2022-08-19T00:52:49.420Z,813.33
2022-08-19T00:53:23.762Z,897.25
2022-08-19T00:53:58.096Z,990.58
2022-08-19T00:54:32.501Z,931.03
2022-08-19T00:55:06.438Z,1006.42
2022-08-19T00:55:39.146Z,934.75
2022-08-19T00:56:13.469Z,801.20
2022-08-19T00:56:46.105Z,911.40
2022-08-19T00:57:19.652Z,918.30
2022-08-19T00:57:59.382Z,1199.10
2022-08-19T00:58:33.535Z,1111.97
2022-08-19T00:59:09.999Z,1111.80
2022-08-19T00:59:56.226Z,842.45
2022-08-19T01:00:37.648Z,858.83
2022-08-19T01:01:10.034Z,834.78
2022-08-19T01:01:45.390Z,1137.57
2022-08-19T01:02:17.867Z,1026.85
2022-08-19T01:02:50.146Z,878.13
2022-08-19T01:03:22.852Z,1066.10
2022-08-19T01:03:58.833Z,1062.05
2022-08-19T01:04:31.284Z,883.88
2022-08-19T01:05:05.835Z,1046.10
2022-08-19T01:05:40.648Z,997.92
2022-08-19T01:06:12.856Z,1060.55
2022-08-19T01:06:45.064Z,908.85
2022-08-19T01:07:19.763Z,984.17
2022-08-19T01:07:52.414Z,1063.30
2022-08-19T01:08:24.682Z,888.90
2022-08-19T01:08:56.936Z,984.42
2022-08-19T01:09:29.795Z,1027.93
2022-08-19T01:10:02.543Z,1104.68
2022-08-19T01:10:38.227Z,775.63
2022-08-19T01:11:10.506Z,773.60
2022-08-19T01:11:45.612Z,772.75
2022-08-19T01:12:18.650Z,814.22
2022-08-19T01:12:52.255Z,1099.45
2022-08-19T01:13:26.016Z,923.42
2022-08-19T01:13:58.389Z,998.55
2022-08-19T01:14:31.147Z,994.60
2022-08-19T01:15:04.290Z,1036.75
2022-08-19T01:15:42.385Z,942.15
2022-08-19T01:16:14.821Z,956.75
2022-08-19T01:16:48.052Z,1029.85
2022-08-19T01:17:20.451Z,1036.65
2022-08-19T01:17:53.176Z,933.42
2022-08-19T01:18:26.693Z,898.80
2022-08-19T01:18:58.957Z,958.45
2022-08-19T01:19:43.379Z,916.22
2022-08-19T01:20:20.828Z,883.08
2022-08-19T01:20:55.392Z,885.80
2022-08-19T01:21:30.782Z,922.67
2022-08-19T01:22:16.859Z,997.83
2022-08-19T01:22:50.865Z,993.45
2022-08-19T01:23:43.078Z,935.03
2022-08-19T01:24:16.162Z,879.92
2022-08-19T01:24:50.017Z,904.33
2022-08-19T01:25:29.457Z,1029.60
2022-08-19T01:26:02.028Z,991.92
2022-08-19T01:26:39.131Z,1026.03
2022-08-19T01:27:14.397Z,882.60
2022-08-19T01:27:49.176Z,1014.10
2022-08-19T01:28:34.224Z,1074.72
2022-08-19T01:29:12.978Z,1002.05
2022-08-19T01:29:45.968Z,996.58
2022-08-19T01:30:21.263Z,1001.15
2022-08-19T01:30:53.726Z,965.95
2022-08-19T01:31:32.730Z,1046.60
2022-08-19T01:32:05.460Z,1056.35
2022-08-19T01:32:37.760Z,948.28
2022-08-19T01:33:10.148Z,980.25
2022-08-19T01:33:42.500Z,1011.13
2022-08-19T01:34:15.042Z,957.10
2022-08-19T01:34:48.069Z,1016.25
2022-08-19T01:35:21.233Z,929.65
2022-08-19T01:35:53.748Z,919.00
2022-08-19T01:36:29.577Z,922.05
2022-08-19T01:37:06.423Z,944.42
2022-08-19T01:37:49.134Z,989.92
2022-08-19T01:38:25.045Z,915.97
2022-08-19T01:38:57.333Z,931.30
2022-08-19T01:39:29.746Z,950.00
2022-08-19T01:40:05.250Z,987.03
2022-08-19T01:40:41.065Z,1002.17
2022-08-19T01:41:13.510Z,1059.25
2022-08-19T01:41:45.973Z,1041.22
2022-08-19T01:42:18.184Z,1026.93
2022-08-19T01:42:51.169Z,1043.90
2022-08-19T01:43:23.608Z,1094.40
2022-08-19T01:44:17.995Z,1037.82
2022-08-19T01:44:50.035Z,983.90
2022-08-19T01:45:23.454Z,982.58
2022-08-19T01:45:55.885Z,1000.28
2022-08-19T01:46:28.116Z,955.63
2022-08-19T01:47:00.472Z,948.70
2022-08-19T01:47:32.904Z,838.25
2022-08-19T01:48:05.379Z,777.22
2022-08-19T01:48:41.875Z,705.63
2022-08-19T01:49:14.199Z,710.08
2022-08-19T01:49:46.404Z,783.38
2022-08-19T01:50:19.254Z,827.35
2022-08-19T01:50:53.346Z,909.22
2022-08-19T01:51:25.776Z,889.47
2022-08-19T01:51:58.448Z,783.35
2022-08-19T01:52:30.874Z,798.47
2022-08-19T01:53:07.579Z,820.85
2022-08-19T01:53:40.572Z,850.35
2022-08-19T01:54:13.981Z,920.92
2022-08-19T01:54:55.619Z,848.70
2022-08-19T01:55:27.883Z,788.10
2022-08-19T01:56:00.483Z,722.17
2022-08-19T01:56:32.921Z,733.78
2022-08-19T01:57:08.235Z,732.65
2022-08-19T01:57:42.013Z,721.55
2022-08-19T01:58:17.621Z,810.17
2022-08-19T01:58:56.331Z,799.50
2022-08-19T01:59:28.877Z,763.55
2022-08-19T02:00:04.136Z,778.05
2022-08-19T02:00:44.308Z,740.35
2022-08-19T02:01:16.771Z,779.45
2022-08-19T02:01:49.240Z,775.35
2022-08-19T02:02:21.633Z,725.42
2022-08-19T02:02:54.042Z,778.42
2022-08-19T02:03:26.545Z,782.42
2022-08-19T02:03:59.528Z,847.20
2022-08-19T02:04:31.788Z,763.28
2022-08-19T02:05:04.315Z,753.78
2022-08-19T02:05:36.578Z,785.05
2022-08-19T02:06:09.054Z,774.58
2022-08-19T02:06:41.504Z,782.70
2022-08-19T02:07:13.733Z,771.97
2022-08-19T02:07:45.964Z,769.70
2022-08-19T02:08:18.241Z,781.20
2022-08-19T02:08:50.650Z,782.22
2022-08-19T02:09:24.014Z,782.75
2022-08-19T02:09:57.200Z,776.63
2022-08-19T02:10:29.460Z,791.65
2022-08-19T02:11:01.764Z,793.65
2022-08-19T02:11:34.955Z,802.30
2022-08-19T02:12:08.880Z,753.50
2022-08-19T02:12:41.249Z,768.13
2022-08-19T02:13:14.550Z,795.85
2022-08-19T02:13:46.872Z,808.25
2022-08-19T02:14:19.128Z,807.35
2022-08-19T02:14:51.348Z,835.38
2022-08-19T02:15:23.675Z,837.25
2022-08-19T02:15:56.152Z,870.53
2022-08-19T02:16:28.801Z,839.35
2022-08-19T02:17:01.074Z,729.67
2022-08-19T02:17:33.279Z,788.85
2022-08-19T02:18:06.431Z,871.65
2022-08-19T02:18:38.874Z,858.83
2022-08-19T02:19:11.506Z,922.80
2022-08-19T02:19:43.825Z,904.88
2022-08-19T02:20:16.428Z,842.78
2022-08-19T02:20:48.860Z,847.80
2022-08-19T02:21:22.930Z,885.90
2022-08-19T02:21:55.138Z,916.15
2022-08-19T02:22:27.473Z,818.85
2022-08-19T02:22:59.672Z,823.60
2022-08-19T02:23:32.493Z,820.53
2022-08-19T02:24:05.291Z,835.22
2022-08-19T02:24:37.568Z,840.08
2022-08-19T02:25:11.039Z,838.42
2022-08-19T02:25:45.472Z,817.47
2022-08-19T02:26:18.198Z,920.15
2022-08-19T02:26:50.462Z,798.03
2022-08-19T02:27:22.980Z,785.55
2022-08-19T02:27:55.268Z,786.13
2022-08-19T02:28:27.565Z,768.70
2022-08-19T02:29:01.332Z,820.00
2022-08-19T02:29:33.665Z,838.95
2022-08-19T02:30:07.126Z,900.92
2022-08-19T02:30:39.623Z,881.50
2022-08-19T02:31:20.164Z,821.17
2022-08-19T02:31:52.726Z,842.97
2022-08-19T02:32:24.934Z,912.55
2022-08-19T02:32:57.505Z,868.13
2022-08-19T02:33:30.768Z,780.35
2022-08-19T02:34:03.141Z,770.28
2022-08-19T02:34:35.458Z,759.70
2022-08-19T02:35:12.467Z,769.88
2022-08-19T02:35:45.870Z,742.35
2022-08-19T02:36:20.578Z,770.97
2022-08-19T02:36:53.548Z,774.42
2022-08-19T02:37:44.986Z,744.17
2022-08-19T02:38:26.471Z,774.28
2022-08-19T02:38:58.771Z,802.97
2022-08-19T02:39:31.117Z,804.92
2022-08-19T02:40:04.402Z,827.88
2022-08-19T02:40:52.878Z,907.95
2022-08-19T02:41:27.349Z,810.00
2022-08-19T02:42:00.719Z,837.47
2022-08-19T02:42:33.333Z,893.03
2022-08-19T02:43:08.419Z,895.03
2022-08-19T02:43:41.903Z,885.17
2022-08-19T02:44:33.652Z,819.20
2022-08-19T02:45:06.643Z,811.28
2022-08-19T02:45:40.582Z,824.55
2022-08-19T02:46:19.120Z,812.63
2022-08-19T02:46:51.876Z,837.95
2022-08-19T02:47:24.881Z,845.03
2022-08-19T02:47:58.315Z,874.53
2022-08-19T02:48:31.207Z,913.70
2022-08-19T02:49:07.090Z,845.35
2022-08-19T02:49:39.503Z,853.22
2022-08-19T02:50:11.797Z,805.47
2022-08-19T02:50:53.306Z,716.63
2022-08-19T02:51:27.449Z,728.03
2022-08-19T02:51:59.719Z,694.90
2022-08-19T02:52:33.026Z,714.05
2022-08-19T02:53:05.624Z,702.75
2022-08-19T02:53:38.432Z,707.00
2022-08-19T02:54:11.900Z,687.78
2022-08-19T02:54:44.828Z,678.40
2022-08-19T02:55:17.154Z,673.58
2022-08-19T02:55:49.960Z,667.40
2022-08-19T02:56:22.436Z,665.35
2022-08-19T02:56:54.698Z,681.85
2022-08-19T02:57:27.791Z,693.00
2022-08-19T02:58:00.926Z,687.58
2022-08-19T02:58:33.140Z,689.38
2022-08-19T02:59:11.309Z,673.42
2022-08-19T02:59:44.160Z,694.78
2022-08-19T03:00:17.298Z,679.13
2022-08-19T03:00:51.282Z,668.60
2022-08-19T03:01:28.198Z,686.50
2022-08-19T03:02:00.647Z,696.33
2022-08-19T03:02:32.876Z,687.20
2022-08-19T03:03:05.108Z,700.08
2022-08-19T03:03:37.964Z,698.20
2022-08-19T03:04:12.183Z,697.72
2022-08-19T03:04:44.510Z,703.17
2022-08-19T03:05:16.916Z,700.03
2022-08-19T03:05:56.970Z,662.50
2022-08-19T03:06:30.134Z,679.03
2022-08-19T03:07:07.197Z,642.08
2022-08-19T03:07:43.577Z,690.53
2022-08-19T03:08:16.283Z,691.80
2022-08-19T03:08:49.800Z,670.33
2022-08-19T03:09:22.337Z,717.65
2022-08-19T03:09:54.583Z,729.67
2022-08-19T03:10:26.798Z,725.28
2022-08-19T03:10:59.110Z,780.72
2022-08-19T03:11:32.857Z,790.78
2022-08-19T03:12:05.895Z,744.85
2022-08-19T03:12:39.082Z,688.95
2022-08-19T03:13:12.608Z,761.05
2022-08-19T03:13:45.384Z,757.25
2022-08-19T03:14:19.176Z,779.25
2022-08-19T03:14:53.043Z,798.28
2022-08-19T03:15:25.288Z,832.47
2022-08-19T03:15:57.828Z,821.53
2022-08-19T03:16:33.513Z,833.38
2022-08-19T03:17:06.448Z,932.28
2022-08-19T03:17:38.708Z,842.78
2022-08-19T03:18:11.355Z,867.75
2022-08-19T03:18:45.496Z,808.25
2022-08-19T03:19:19.490Z,890.03
2022-08-19T03:19:51.744Z,826.70
2022-08-19T03:20:24.070Z,827.72
2022-08-19T03:20:57.082Z,862.45
2022-08-19T03:21:31.282Z,921.60
2022-08-19T03:22:05.299Z,725.55
2022-08-19T03:22:37.614Z,814.53
2022-08-19T03:23:09.944Z,783.72
2022-08-19T03:23:42.244Z,836.95
2022-08-19T03:24:15.203Z,892.47
2022-08-19T03:24:47.526Z,730.80
2022-08-19T03:25:19.751Z,698.42
2022-08-19T03:26:03.991Z,711.65
2022-08-19T03:26:48.760Z,693.72
2022-08-19T03:27:21.078Z,722.05
2022-08-19T03:27:53.329Z,743.28
2022-08-19T03:28:25.802Z,735.90
2022-08-19T03:28:59.018Z,737.35
2022-08-19T03:29:32.727Z,926.72
2022-08-19T03:30:05.533Z,749.92
2022-08-19T03:30:41.813Z,721.13
2022-08-19T03:31:45.588Z,771.90
2022-08-19T03:32:08.082Z,762.63
2022-08-19T03:33:00.380Z,784.58
2022-08-19T03:33:33.457Z,786.67
2022-08-19T03:34:08.077Z,755.83
2022-08-19T03:34:40.488Z,753.80
2022-08-19T03:35:12.780Z,773.58
2022-08-19T03:35:46.195Z,782.47
2022-08-19T03:36:21.649Z,827.17
2022-08-19T03:36:57.955Z,849.75
2022-08-19T03:37:30.180Z,982.10
2022-08-19T03:38:02.405Z,818.13
2022-08-19T03:38:35.026Z,906.05
2022-08-19T03:39:09.486Z,814.67
2022-08-19T03:39:43.207Z,786.03
2022-08-19T03:40:16.623Z,814.97
2022-08-19T03:40:49.008Z,823.85
2022-08-19T03:41:26.012Z,835.75
2022-08-19T03:42:38.705Z,784.70
2022-08-19T03:43:08.761Z,822.15
2022-08-19T03:43:41.586Z,846.95
2022-08-19T03:44:16.612Z,836.17
2022-08-19T03:44:51.086Z,857.83
2022-08-19T03:45:23.717Z,899.70
2022-08-19T03:46:03.639Z,905.85
2022-08-19T03:46:35.962Z,874.15
2022-08-19T03:47:08.297Z,872.05
2022-08-19T03:47:40.848Z,891.15
2022-08-19T03:48:13.063Z,874.58
2022-08-19T03:48:45.347Z,774.20
2022-08-19T03:49:18.713Z,747.75
2022-08-19T03:49:51.946Z,855.28
2022-08-19T03:50:25.440Z,836.63
2022-08-19T03:50:59.517Z,842.45
2022-08-19T03:51:35.866Z,819.30
2022-08-19T03:52:08.841Z,830.85
2022-08-19T03:52:41.262Z,830.95
2022-08-19T03:53:19.185Z,821.15
2022-08-19T03:53:51.751Z,815.70
2022-08-19T03:54:24.819Z,741.78
2022-08-19T03:54:57.170Z,727.80
2022-08-19T03:55:29.456Z,694.28
2022-08-19T03:56:02.187Z,708.95
2022-08-19T03:56:38.375Z,727.40
2022-08-19T03:57:10.699Z,756.80
2022-08-19T03:57:43.007Z,806.17
2022-08-19T03:58:15.356Z,804.08
2022-08-19T03:58:48.080Z,792.70
2022-08-19T03:59:26.196Z,763.05
2022-08-19T04:00:12.850Z,752.17
2022-08-19T04:00:46.357Z,766.83
2022-08-19T04:01:20.383Z,806.13
2022-08-19T04:02:10.096Z,767.83
2022-08-19T04:02:58.564Z,777.08
2022-08-19T04:03:32.981Z,756.88
2022-08-19T04:04:05.454Z,792.00
2022-08-19T04:04:38.835Z,780.25
2022-08-19T04:05:11.480Z,772.67
2022-08-19T04:05:44.074Z,808.33
2022-08-19T04:06:22.162Z,801.33
2022-08-19T04:06:54.659Z,788.70
2022-08-19T04:07:26.880Z,769.92
2022-08-19T04:08:00.298Z,771.28
2022-08-19T04:08:32.836Z,788.13
2022-08-19T04:09:06.130Z,796.72
2022-08-19T04:09:38.691Z,799.05
2022-08-19T04:10:11.029Z,782.95
2022-08-19T04:10:43.945Z,792.15
2022-08-19T04:11:18.082Z,774.30
2022-08-19T04:11:54.757Z,774.92
2022-08-19T04:12:27.363Z,823.72
2022-08-19T04:12:59.779Z,824.03
2022-08-19T04:13:32.013Z,809.45
2022-08-19T04:14:04.592Z,821.22
2022-08-19T04:14:36.964Z,824.75
2022-08-19T04:15:09.478Z,829.97
2022-08-19T04:15:42.850Z,824.92
2022-08-19T04:16:15.575Z,849.90
2022-08-19T04:16:48.516Z,849.50
2022-08-19T04:17:20.806Z,807.45
2022-08-19T04:17:53.112Z,846.65
2022-08-19T04:18:25.372Z,787.70
2022-08-19T04:18:58.148Z,866.20
2022-08-19T04:19:31.142Z,897.10
2022-08-19T04:20:06.990Z,671.83
2022-08-19T04:20:43.562Z,691.85
2022-08-19T04:21:20.089Z,742.15
2022-08-19T04:21:54.040Z,768.60
2022-08-19T04:22:26.278Z,774.25
2022-08-19T04:23:01.098Z,853.92
2022-08-19T04:23:33.748Z,845.15
2022-08-19T04:24:06.601Z,850.03
2022-08-19T04:24:40.450Z,765.08
2022-08-19T04:25:12.844Z,780.95
2022-08-19T04:25:45.663Z,859.45
2022-08-19T04:26:25.941Z,815.17
2022-08-19T04:27:00.121Z,813.22
2022-08-19T04:27:32.398Z,828.70
2022-08-19T04:28:04.771Z,805.10
2022-08-19T04:28:37.845Z,813.85
2022-08-19T04:29:12.748Z,828.30
2022-08-19T04:29:45.189Z,849.67
2022-08-19T04:30:18.796Z,910.45
2022-08-19T04:30:52.448Z,884.75
2022-08-19T04:31:29.892Z,887.45
2022-08-19T04:32:09.406Z,902.75
2022-08-19T04:32:42.197Z,787.42
2022-08-19T04:33:16.464Z,825.97
2022-08-19T04:33:50.600Z,881.28
2022-08-19T04:34:24.482Z,852.67
2022-08-19T04:35:02.790Z,866.45
2022-08-19T04:35:49.762Z,887.75
2022-08-19T04:36:23.350Z,899.60
2022-08-19T04:36:57.249Z,850.08
2022-08-19T04:37:35.002Z,887.28
2022-08-19T04:38:08.190Z,815.42
2022-08-19T04:38:40.417Z,818.50
2022-08-19T04:39:14.382Z,830.25
2022-08-19T04:40:04.993Z,808.78
2022-08-19T04:41:03.077Z,812.03
2022-08-19T04:41:53.880Z,846.55
2022-08-19T04:42:41.299Z,811.13
2022-08-19T04:43:16.623Z,832.28
2022-08-19T04:43:49.961Z,842.97
2022-08-19T04:44:22.494Z,922.28
2022-08-19T04:44:55.415Z,918.67
2022-08-19T04:45:27.657Z,914.47
2022-08-19T04:46:05.044Z,779.50
2022-08-19T04:46:40.303Z,792.15
2022-08-19T04:47:47.104Z,770.47
2022-08-19T04:48:26.393Z,774.15
2022-08-19T04:49:00.139Z,806.38
2022-08-19T04:49:42.911Z,776.05
2022-08-19T04:50:15.635Z,828.22
2022-08-19T04:50:52.027Z,842.08
2022-08-19T04:51:24.273Z,811.58
2022-08-19T04:51:56.694Z,867.25
2022-08-19T04:52:29.427Z,813.08
2022-08-19T04:53:01.655Z,806.22
2022-08-19T04:53:37.558Z,785.55
2022-08-19T04:54:10.568Z,738.63
2022-08-19T04:54:42.826Z,769.58
2022-08-19T04:55:15.642Z,769.67
2022-08-19T04:55:47.892Z,785.90
2022-08-19T04:56:21.970Z,824.85
2022-08-19T04:56:54.480Z,764.70
2022-08-19T04:57:27.376Z,867.38
2022-08-19T04:57:59.626Z,782.63
2022-08-19T04:58:32.447Z,845.03
2022-08-19T04:59:05.256Z,764.90
2022-08-19T04:59:38.497Z,764.40
2022-08-19T05:00:11.160Z,762.78
2022-08-19T05:00:43.452Z,839.97
2022-08-19T05:01:19.387Z,860.30
2022-08-19T05:01:51.866Z,850.47
2022-08-19T05:02:25.741Z,800.70
2022-08-19T05:02:57.990Z,750.15
2022-08-19T05:03:33.970Z,751.72
2022-08-19T05:04:07.257Z,754.38
2022-08-19T05:04:40.508Z,741.35
2022-08-19T05:05:13.609Z,750.42
2022-08-19T05:05:46.811Z,766.05
2022-08-19T05:06:20.337Z,770.97
2022-08-19T05:06:59.411Z,771.45
2022-08-19T05:07:33.390Z,774.78
2022-08-19T05:08:06.522Z,755.25
2022-08-19T05:08:42.019Z,789.00
2022-08-19T05:09:15.073Z,823.65
2022-08-19T05:09:57.068Z,814.30
2022-08-19T05:10:31.873Z,755.63
2022-08-19T05:11:09.476Z,731.28
2022-08-19T05:11:42.404Z,902.05
2022-08-19T05:12:14.727Z,848.10
2022-08-19T05:12:47.189Z,896.13
2022-08-19T05:13:20.444Z,847.33
2022-08-19T05:13:53.340Z,754.13
2022-08-19T05:14:25.731Z,757.28
2022-08-19T05:14:58.674Z,730.05
2022-08-19T05:15:31.239Z,775.88
2022-08-19T05:16:03.755Z,786.17
2022-08-19T05:16:35.987Z,771.30
2022-08-19T05:17:26.525Z,759.92
2022-08-19T05:18:18.039Z,787.03
2022-08-19T05:19:11.613Z,771.42
2022-08-19T05:20:02.398Z,796.35
2022-08-19T05:20:53.202Z,859.25
2022-08-19T05:21:44.572Z,915.20
2022-08-19T05:22:36.664Z,851.53
2022-08-19T05:23:20.551Z,766.40
2022-08-19T05:23:53.334Z,734.70
2022-08-19T05:24:25.792Z,738.80
2022-08-19T05:25:12.156Z,744.42
2022-08-19T05:25:45.586Z,749.33
2022-08-19T05:26:17.823Z,739.08
2022-08-19T05:26:50.789Z,746.47
2022-08-19T05:27:23.040Z,742.65
2022-08-19T05:27:55.329Z,740.17
2022-08-19T05:28:28.674Z,741.55
2022-08-19T05:29:04.507Z,724.25
2022-08-19T05:29:36.828Z,746.03
2022-08-19T05:30:09.611Z,686.90
2022-08-19T05:30:47.130Z,740.45
2022-08-19T05:31:20.527Z,753.67
2022-08-19T05:31:53.594Z,704.30
2022-08-19T05:32:26.202Z,752.50
2022-08-19T05:32:58.539Z,741.13
2022-08-19T05:33:31.090Z,757.42
2022-08-19T05:34:04.681Z,755.22
2022-08-19T05:34:50.444Z,764.83
2022-08-19T05:35:24.499Z,760.25
2022-08-19T05:35:57.134Z,751.20
2022-08-19T05:36:33.957Z,764.08
2022-08-19T05:37:06.688Z,768.05
2022-08-19T05:37:41.426Z,771.63
2022-08-19T05:38:14.016Z,778.22
2022-08-19T05:38:46.576Z,782.33
2022-08-19T05:39:21.400Z,853.97
2022-08-19T05:39:53.992Z,848.00
2022-08-19T05:40:26.307Z,853.15
2022-08-19T05:40:59.152Z,871.92
2022-08-19T05:41:31.600Z,834.38
2022-08-19T05:42:07.987Z,852.30
2022-08-19T05:42:40.222Z,735.22
2022-08-19T05:43:12.467Z,836.55
2022-08-19T05:43:44.721Z,864.05
2022-08-19T05:44:17.835Z,830.00
2022-08-19T05:44:50.607Z,856.63
2022-08-19T05:45:22.957Z,789.45
2022-08-19T05:45:55.271Z,915.03
2022-08-19T05:46:28.187Z,881.42
2022-08-19T05:47:01.444Z,914.60
2022-08-19T05:47:33.848Z,867.80
2022-08-19T05:48:06.323Z,785.17
2022-08-19T05:48:38.641Z,773.15
2022-08-19T05:49:10.881Z,857.35
2022-08-19T05:49:43.707Z,761.75
2022-08-19T05:50:16.013Z,757.28
2022-08-19T05:50:51.429Z,760.25
2022-08-19T05:51:28.831Z,798.33
2022-08-19T05:52:09.500Z,892.40
2022-08-19T05:52:43.804Z,826.25
2022-08-19T05:53:22.434Z,844.75
2022-08-19T05:53:54.711Z,829.42
2022-08-19T05:54:27.840Z,830.10
2022-08-19T05:55:00.107Z,857.08
2022-08-19T05:55:32.947Z,844.22
2022-08-19T05:56:06.477Z,845.13
2022-08-19T05:56:39.223Z,888.28
2022-08-19T05:57:12.066Z,884.00
2022-08-19T05:57:45.729Z,830.92
2022-08-19T05:58:18.400Z,776.70
2022-08-19T05:58:55.383Z,814.35
2022-08-19T05:59:30.752Z,791.67
2022-08-19T06:00:09.526Z,802.65
2022-08-19T06:00:44.702Z,813.53
2022-08-19T06:01:18.164Z,830.58
2022-08-19T06:01:51.708Z,938.92
2022-08-19T06:02:24.030Z,862.70
2022-08-19T06:02:57.604Z,852.17
2022-08-19T06:03:29.869Z,774.88
2022-08-19T06:04:02.580Z,747.70
2022-08-19T06:04:34.929Z,741.20
2022-08-19T06:05:08.356Z,739.17
2022-08-19T06:05:42.329Z,745.85
2022-08-19T06:06:22.120Z,731.53
2022-08-19T06:06:55.042Z,734.65
2022-08-19T06:07:27.413Z,762.65
2022-08-19T06:08:02.388Z,772.92
2022-08-19T06:08:35.158Z,761.92
2022-08-19T06:09:07.911Z,710.00
2022-08-19T06:09:40.917Z,691.58
2022-08-19T06:10:13.142Z,696.78
2022-08-19T06:10:45.423Z,675.08
2022-08-19T06:11:17.678Z,673.50
2022-08-19T06:11:59.903Z,636.00
2022-08-19T06:12:36.088Z,690.50
2022-08-19T06:13:08.423Z,686.75
2022-08-19T06:13:40.721Z,695.47
2022-08-19T06:14:18.264Z,671.83
2022-08-19T06:14:56.040Z,695.90
2022-08-19T06:15:34.063Z,678.13
2022-08-19T06:16:06.456Z,692.45
2022-08-19T06:16:39.884Z,695.65
2022-08-19T06:17:12.412Z,711.75
2022-08-19T06:17:45.563Z,686.00
2022-08-19T06:18:18.201Z,668.30
2022-08-19T06:18:52.700Z,669.97
2022-08-19T06:19:25.434Z,679.38
2022-08-19T06:19:57.973Z,701.38
2022-08-19T06:20:54.430Z,674.08
2022-08-19T06:21:28.277Z,649.90
2022-08-19T06:22:01.298Z,685.25
2022-08-19T06:22:38.842Z,687.28
2022-08-19T06:23:11.167Z,689.65
2022-08-19T06:23:50.066Z,677.35
2022-08-19T06:24:26.492Z,624.75
2022-08-19T06:24:58.841Z,682.50
2022-08-19T06:25:31.592Z,686.30
2022-08-19T06:26:03.845Z,672.60
2022-08-19T06:26:36.839Z,664.70
2022-08-19T06:27:09.350Z,664.90
2022-08-19T06:28:11.442Z,669.72
2022-08-19T06:28:34.605Z,627.83
2022-08-19T06:29:07.477Z,636.03
2022-08-19T06:29:39.759Z,689.13
2022-08-19T06:30:13.667Z,681.22
2022-08-19T06:30:45.960Z,657.00
2022-08-19T06:31:19.264Z,675.90
2022-08-19T06:31:53.061Z,674.38
2022-08-19T06:32:25.460Z,667.20
2022-08-19T06:32:57.795Z,655.13
2022-08-19T06:33:30.023Z,640.10
2022-08-19T06:34:04.113Z,639.35
2022-08-19T06:34:36.705Z,650.25
2022-08-19T06:35:09.094Z,594.47
2022-08-19T06:35:42.020Z,648.50
2022-08-19T06:36:19.920Z,653.97
2022-08-19T06:36:52.993Z,631.83
2022-08-19T06:37:25.290Z,636.03
2022-08-19T06:37:57.758Z,620.47
2022-08-19T06:38:30.283Z,636.95
2022-08-19T06:39:04.904Z,642.38
2022-08-19T06:39:39.469Z,606.80
2022-08-19T06:40:13.662Z,626.03
2022-08-19T06:40:46.084Z,637.88
2022-08-19T06:41:18.315Z,650.67
2022-08-19T06:41:55.463Z,641.60
2022-08-19T06:42:29.152Z,580.70
2022-08-19T06:43:03.689Z,620.70
2022-08-19T06:43:42.220Z,651.22
2022-08-19T06:44:15.200Z,632.03
2022-08-19T06:44:53.163Z,631.90
2022-08-19T06:45:35.750Z,637.58
2022-08-19T06:46:16.070Z,655.17
2022-08-19T06:46:53.540Z,648.08
2022-08-19T06:47:28.614Z,640.67
2022-08-19T06:48:01.630Z,653.78
2022-08-19T06:48:37.721Z,646.80
2022-08-19T06:49:18.175Z,651.03
2022-08-19T06:49:51.189Z,633.28
2022-08-19T06:50:26.393Z,647.50
2022-08-19T06:50:58.708Z,654.63
2022-08-19T06:52:14.189Z,643.92
2022-08-19T06:52:48.001Z,644.85
2022-08-19T06:53:21.028Z,643.13
2022-08-19T06:53:55.499Z,649.83
2022-08-19T06:54:30.799Z,627.65
2022-08-19T06:55:06.100Z,651.08
2022-08-19T06:55:38.854Z,651.25
2022-08-19T06:56:11.093Z,633.72
2022-08-19T06:56:44.592Z,645.22
2022-08-19T06:57:17.035Z,638.90
2022-08-19T06:57:49.460Z,630.97
2022-08-19T06:58:21.846Z,654.45
2022-08-19T06:58:54.109Z,623.88
2022-08-19T06:59:29.311Z,650.55
2022-08-19T07:00:01.982Z,651.03
2022-08-19T07:00:34.985Z,657.22
2022-08-19T07:01:09.191Z,653.92
2022-08-19T07:01:43.048Z,642.97
2022-08-19T07:02:15.392Z,634.80
2022-08-19T07:02:53.219Z,635.22
2022-08-19T07:03:30.110Z,639.08
2022-08-19T07:04:05.977Z,663.63
2022-08-19T07:04:42.172Z,647.55
2022-08-19T07:05:14.893Z,648.08
2022-08-19T07:05:47.327Z,652.40
2022-08-19T07:07:20.327Z,658.88
2022-08-19T07:07:53.711Z,643.30
2022-08-19T07:08:29.985Z,649.58
2022-08-19T07:09:02.330Z,661.50
2022-08-19T07:09:38.255Z,630.67
2022-08-19T07:10:10.942Z,632.55
2022-08-19T07:10:45.693Z,640.50
2022-08-19T07:11:19.359Z,663.17
2022-08-19T07:11:53.496Z,635.70
2022-08-19T07:12:25.793Z,649.40
2022-08-19T07:13:00.028Z,656.67